createdAt,value
2022-08-12T00:05:10.289Z,24.31
2022-08-12T00:10:26.739Z,24.15
2022-08-12T00:15:42.148Z,24.43
2022-08-12T00:21:02.621Z,24.15
2022-08-12T00:26:21.474Z,23.90
2022-08-12T00:32:12.366Z,24.19
2022-08-12T00:37:53.716Z,24.18
2022-08-12T00:42:54.471Z,24.13
2022-08-12T00:47:53.485Z,24.24
2022-08-12T00:52:52.609Z,23.66
2022-08-12T00:57:53.046Z,23.88
2022-08-12T01:02:56.956Z,24.17
2022-08-12T01:09:16.471Z,24.00
2022-08-12T01:13:39.011Z,23.65
2022-08-12T01:18:41.676Z,23.55
2022-08-12T01:23:54.746Z,23.62
2022-08-12T01:28:55.909Z,23.87
2022-08-12T01:34:04.972Z,24.06
2022-08-12T01:39:32.192Z,24.04
2022-08-12T01:44:34.577Z,23.95
2022-08-12T01:50:15.800Z,23.81
2022-08-12T01:55:16.003Z,24.14
2022-08-12T02:00:16.443Z,24.07
2022-08-12T02:05:58.704Z,23.47
2022-08-12T02:11:21.011Z,23.92
2022-08-12T02:16:44.905Z,23.58
2022-08-12T02:21:47.509Z,23.78
2022-08-12T02:26:49.626Z,23.45
2022-08-12T02:31:53.964Z,23.87
2022-08-12T02:37:02.647Z,23.73
2022-08-12T02:42:04.726Z,23.77
2022-08-12T02:47:58.118Z,23.87
2022-08-12T02:52:42.357Z,23.85
2022-08-12T02:57:52.056Z,23.63
2022-08-12T03:02:59.796Z,23.66
2022-08-12T03:08:00.458Z,23.31
2022-08-12T03:13:01.161Z,23.57
2022-08-12T03:18:24.910Z,23.34
2022-08-12T03:23:30.176Z,23.61
2022-08-12T03:28:49.636Z,23.24
2022-08-12T03:34:01.856Z,23.50
2022-08-12T03:39:35.316Z,23.48
2022-08-12T03:44:56.924Z,23.91
2022-08-12T03:50:12.877Z,23.95
2022-08-12T03:55:34.103Z,24.01
2022-08-12T04:00:33.162Z,23.72
2022-08-12T04:05:56.039Z,23.93
2022-08-12T04:16:27.284Z,24.50
2022-08-12T04:21:33.690Z,24.65
2022-08-12T04:26:39.419Z,24.36
2022-08-12T04:31:39.351Z,24.48
2022-08-12T04:36:40.556Z,24.86
2022-08-12T04:41:39.152Z,24.79
2022-08-12T04:46:55.442Z,24.79
2022-08-12T04:51:54.577Z,24.73
2022-08-12T04:57:04.798Z,25.12
2022-08-12T05:02:34.161Z,24.51
2022-08-12T05:08:10.903Z,24.45
2022-08-12T05:13:53.433Z,24.73
2022-08-12T05:18:50.790Z,24.71
2022-08-12T05:23:54.436Z,24.82
2022-08-12T05:28:53.654Z,24.92
2022-08-12T05:34:01.451Z,25.46
2022-08-12T05:39:07.862Z,26.57
2022-08-12T05:44:06.663Z,28.96
2022-08-12T05:49:08.851Z,31.50
2022-08-12T05:54:10.924Z,32.71
2022-08-12T05:59:17.260Z,33.36
2022-08-12T06:04:14.645Z,33.33
2022-08-12T06:09:15.395Z,33.02
2022-08-12T06:14:53.338Z,32.73
2022-08-12T06:20:26.112Z,32.44
2022-08-12T06:25:29.741Z,33.38
2022-08-12T06:30:38.024Z,33.19
2022-08-12T06:35:50.968Z,33.00
2022-08-12T06:41:13.013Z,32.68
2022-08-12T06:46:10.875Z,32.72
2022-08-12T06:51:14.763Z,32.63
2022-08-12T06:56:45.925Z,32.75
2022-08-12T07:02:00.970Z,31.96
2022-08-12T07:07:09.047Z,32.21
2022-08-12T07:12:19.243Z,32.04
2022-08-12T07:17:16.405Z,32.47
2022-08-12T07:22:16.681Z,33.29
2022-08-12T07:27:13.951Z,33.45
2022-08-12T07:32:14.796Z,33.90
2022-08-12T07:37:17.455Z,34.60
2022-08-12T07:42:18.448Z,34.22
2022-08-12T07:47:29.249Z,34.50
2022-08-12T07:53:50.157Z,34.64
2022-08-12T07:59:21.259Z,35.93
2022-08-12T08:04:46.336Z,36.41
2022-08-12T08:10:38.944Z,36.94
2022-08-12T08:21:39.914Z,36.35
2022-08-12T08:27:13.283Z,37.25
2022-08-12T08:32:16.059Z,37.61
2022-08-12T08:43:44.687Z,36.96
2022-08-12T08:49:04.888Z,36.70
2022-08-12T08:54:03.946Z,37.79
2022-08-12T08:59:11.632Z,38.20
2022-08-12T09:05:08.964Z,38.82
2022-08-12T09:15:35.337Z,38.00
2022-08-12T09:28:05.087Z,39.38
2022-08-12T09:38:30.238Z,38.79
2022-08-12T09:49:46.012Z,39.78
2022-08-12T09:56:07.122Z,40.02
2022-08-12T10:00:43.241Z,41.00
2022-08-12T10:06:31.825Z,41.86
2022-08-12T10:12:12.975Z,42.32
2022-08-12T10:18:13.464Z,41.42
2022-08-12T10:23:45.921Z,40.18
2022-08-12T10:30:40.334Z,39.75
2022-08-12T10:36:08.979Z,38.63
2022-08-12T10:42:29.258Z,38.71
2022-08-12T10:48:19.222Z,37.35
2022-08-12T10:53:49.374Z,37.25
2022-08-12T10:58:59.915Z,37.32
2022-08-12T11:10:01.050Z,35.29
2022-08-12T11:15:18.573Z,35.21
2022-08-12T11:20:23.983Z,33.94
2022-08-12T11:25:55.971Z,33.65
2022-08-12T11:31:16.590Z,33.89
2022-08-12T11:36:21.911Z,33.36
2022-08-12T11:41:31.261Z,33.19
2022-08-12T11:47:10.559Z,32.87
2022-08-12T11:52:27.996Z,33.29
2022-08-12T11:59:02.994Z,32.90
2022-08-12T12:04:34.249Z,32.73
2022-08-12T12:09:52.898Z,32.24
2022-08-12T12:15:25.265Z,32.68
2022-08-12T12:21:01.192Z,33.41
2022-08-12T12:26:35.500Z,33.43
2022-08-12T12:32:11.071Z,33.11
2022-08-12T12:37:01.229Z,32.69
2022-08-12T12:42:47.604Z,33.18
2022-08-12T12:47:38.709Z,33.56
2022-08-12T12:54:05.804Z,33.26
2022-08-12T12:59:33.684Z,33.35
2022-08-12T13:10:38.982Z,32.79
2022-08-12T13:16:14.369Z,32.67
2022-08-12T13:26:46.980Z,32.91
2022-08-12T13:32:19.684Z,33.29
2022-08-12T13:37:09.810Z,33.14
2022-08-12T13:42:14.616Z,32.86
2022-08-12T13:47:24.062Z,32.74
2022-08-12T13:53:00.211Z,32.46
2022-08-12T14:05:01.804Z,32.74
2022-08-12T14:10:36.099Z,33.07
2022-08-12T14:21:58.857Z,32.49
2022-08-12T14:28:03.977Z,32.65
2022-08-12T14:33:43.974Z,32.88
2022-08-12T14:38:53.861Z,32.93
2022-08-12T14:44:57.732Z,32.79
2022-08-12T14:50:41.648Z,32.55
2022-08-12T15:06:44.141Z,32.53
2022-08-12T15:11:55.388Z,32.60
2022-08-12T15:17:09.985Z,32.91
2022-08-12T15:22:37.912Z,32.36
2022-08-12T15:28:04.482Z,32.57
2022-08-12T15:33:20.935Z,32.40
2022-08-12T15:38:34.839Z,32.60
2022-08-12T15:44:38.735Z,32.23
2022-08-12T15:50:26.509Z,32.21
2022-08-12T15:55:26.843Z,32.07
2022-08-12T16:00:33.995Z,32.08
2022-08-12T16:06:11.253Z,31.58
2022-08-12T16:16:23.708Z,31.73
2022-08-12T16:21:51.932Z,31.67
2022-08-12T16:27:07.665Z,31.52
2022-08-12T16:32:19.322Z,31.34
2022-08-12T16:38:24.198Z,31.02
2022-08-12T16:43:01.963Z,31.25
2022-08-12T16:48:03.532Z,30.94
2022-08-12T16:53:46.743Z,30.80
2022-08-12T16:58:46.677Z,30.91
2022-08-12T17:04:08.115Z,30.89
2022-08-12T17:09:49.472Z,30.47
2022-08-12T17:14:57.554Z,30.76
2022-08-12T17:20:36.705Z,30.34
2022-08-12T17:25:45.706Z,30.32
2022-08-12T17:30:57.462Z,30.44
2022-08-12T17:36:04.079Z,29.97
2022-08-12T17:41:22.405Z,30.19
2022-08-12T17:46:24.054Z,29.50
2022-08-12T17:51:34.289Z,29.76
2022-08-12T17:57:20.123Z,29.63
2022-08-12T18:03:11.824Z,29.64
2022-08-12T18:16:03.796Z,29.39
2022-08-12T18:26:46.016Z,29.69
2022-08-12T18:32:03.420Z,29.45
2022-08-12T18:37:41.133Z,28.91
2022-08-12T18:42:57.021Z,29.11
2022-08-12T18:48:33.070Z,28.95
2022-08-12T18:54:07.336Z,28.44
2022-08-12T18:59:05.005Z,28.24
2022-08-12T19:04:59.801Z,28.61
2022-08-12T19:10:50.787Z,28.42
2022-08-12T19:15:51.619Z,28.15
2022-08-12T19:20:55.597Z,27.65
2022-08-12T19:26:14.854Z,27.45
2022-08-12T19:38:04.207Z,27.06
2022-08-12T19:43:40.758Z,27.44
2022-08-12T19:48:47.335Z,26.96
2022-08-12T20:00:04.368Z,26.71
2022-08-12T20:06:06.638Z,26.73
2022-08-12T20:17:10.664Z,27.05
2022-08-12T20:22:50.148Z,26.98
2022-08-12T20:28:06.498Z,26.42
2022-08-12T20:33:18.602Z,26.52
2022-08-12T20:38:26.336Z,26.56
2022-08-12T20:43:57.821Z,25.91
2022-08-12T20:55:15.499Z,25.95
2022-08-12T21:00:22.804Z,25.51
2022-08-12T21:06:13.601Z,25.99
2022-08-12T21:11:39.327Z,25.15
2022-08-12T21:16:44.480Z,25.32
2022-08-12T21:21:54.406Z,25.73
2022-08-12T21:27:08.898Z,25.63
2022-08-12T21:32:39.258Z,25.34
2022-08-12T21:38:09.785Z,25.23
2022-08-12T21:43:07.802Z,25.54
2022-08-12T21:48:12.652Z,25.53
2022-08-12T21:53:15.183Z,25.01
2022-08-12T21:58:16.901Z,25.39
2022-08-12T22:04:04.306Z,25.48
2022-08-12T22:08:59.459Z,25.46
2022-08-12T22:14:09.790Z,24.89
2022-08-12T22:19:18.787Z,25.44
2022-08-12T22:24:26.919Z,25.47
2022-08-12T22:29:52.650Z,25.26
2022-08-12T22:35:11.681Z,25.20
2022-08-12T22:40:19.845Z,24.81
2022-08-12T22:45:48.291Z,24.63
2022-08-12T22:51:10.047Z,25.09
2022-08-12T22:56:12.306Z,25.08
2022-08-12T23:01:21.570Z,24.65
2022-08-12T23:06:43.847Z,25.10
2022-08-12T23:11:49.684Z,24.49
2022-08-12T23:17:21.373Z,24.89
2022-08-12T23:22:36.951Z,24.92
2022-08-12T23:27:55.860Z,24.89
2022-08-12T23:33:00.946Z,25.37
2022-08-12T23:38:02.804Z,24.73
2022-08-12T23:43:12.288Z,25.08
2022-08-12T23:48:09.715Z,24.67
2022-08-12T23:53:32.297Z,24.84
2022-08-12T23:58:32.455Z,24.57
